Time;durP1;ratioP1;P1;durP2;ratioP2;P2;SDS_P1;SDS_P2;PMS_P1;PMS_P2;Temp;Humidity;BMP_temperature;BMP_pressure;BME280_temperature;BME280_humidity;BME280_pressure;Samples;Min_cycle;Max_cycle;Signal;HPM_P1;HPM_P2
2022/05/02 00:02:22;;;;;;;24.80;16.92;;;12.00;99.90;;;;;;5052622;28;20083;-77
2022/05/02 00:04:48;;;;;;;23.27;16.50;;;12.10;99.90;;;;;;5052660;28;20079;-77
2022/05/02 00:07:14;;;;;;;24.77;16.38;;;12.20;99.90;;;;;;5052737;28;20041;-77
2022/05/02 00:09:39;;;;;;;24.63;16.20;;;12.20;99.90;;;;;;5035214;28;20040;-77
2022/05/02 00:12:06;;;;;;;23.88;16.73;;;12.00;99.90;;;;;;5052561;28;20025;-76
2022/05/02 00:14:32;;;;;;;30.50;18.85;;;11.90;99.90;;;;;;5045127;28;20118;-77
2022/05/02 00:16:58;;;;;;;24.65;15.68;;;11.80;99.90;;;;;;5032950;28;20359;-76
2022/05/02 00:19:24;;;;;;;22.83;16.48;;;11.80;99.90;;;;;;5032364;28;20045;-77
2022/05/02 00:21:50;;;;;;;22.92;16.98;;;11.60;99.90;;;;;;5032910;28;20041;-76
2022/05/02 00:24:16;;;;;;;26.50;17.88;;;11.40;99.90;;;;;;5032804;28;20055;-76
2022/05/02 00:26:42;;;;;;;25.23;17.20;;;11.20;99.90;;;;;;5031542;28;20033;-77
2022/05/02 00:29:08;;;;;;;25.75;16.85;;;11.00;99.90;;;;;;5032882;28;20029;-77
2022/05/02 00:31:34;;;;;;;25.85;16.88;;;11.00;99.90;;;;;;5047569;28;20029;-77
2022/05/02 00:34:00;;;;;;;23.85;16.23;;;11.00;99.90;;;;;;5072342;28;20047;-76
2022/05/02 00:36:26;;;;;;;23.58;17.17;;;11.20;99.90;;;;;;5072892;28;20095;-76
2022/05/02 00:38:52;;;;;;;24.75;17.95;;;11.30;99.90;;;;;;5054992;28;20033;-76
2022/05/02 00:41:19;;;;;;;28.25;17.85;;;11.60;99.90;;;;;;5072637;28;20032;-77
2022/05/02 00:43:45;;;;;;;22.88;17.92;;;11.50;99.90;;;;;;5072477;28;20469;-76
2022/05/02 00:46:18;;;;;;;22.92;16.25;;;11.30;99.90;;;;;;5072272;28;20032;-78
2022/05/02 00:48:44;;;;;;;28.58;17.98;;;11.10;99.90;;;;;;5055863;28;20396;-76
2022/05/02 00:51:10;;;;;;;28.42;19.33;;;11.10;99.90;;;;;;5052456;28;20440;-76
2022/05/02 00:53:39;;;;;;;24.40;18.60;;;11.00;99.90;;;;;;5053144;28;20025;-76
2022/05/02 00:56:06;;;;;;;28.88;18.27;;;11.30;99.90;;;;;;5056405;28;20052;-77
2022/05/02 00:58:35;;;;;;;29.08;19.17;;;11.40;99.90;;;;;;5056315;28;20033;-76
2022/05/02 01:01:02;;;;;;;29.92;18.95;;;11.20;99.90;;;;;;5056072;28;20037;-75
2022/05/02 01:03:28;;;;;;;28.63;17.52;;;11.30;99.90;;;;;;5037882;28;20029;-76
2022/05/02 01:08:40;;;;;;;26.80;17.85;;;11.20;99.90;;;;;;5056246;28;20043;-76
2022/05/02 01:11:06;;;;;;;25.27;16.98;;;10.80;99.90;;;;;;5056071;28;20104;-76
2022/05/02 01:13:58;;;;;;;50.20;17.90;;;10.80;99.90;;;;;;5056063;28;20059;-75
2022/05/02 01:16:29;;;;;;;43.22;17.20;;;10.60;99.90;;;;;;5051158;28;20106;-76
2022/05/02 01:18:57;;;;;;;27.08;16.75;;;10.50;99.90;;;;;;5038027;28;20033;-76
2022/05/02 01:21:25;;;;;;;28.77;18.75;;;10.40;99.90;;;;;;5037882;28;20052;-76
2022/05/02 01:23:58;;;;;;;31.77;18.10;;;10.30;99.90;;;;;;5037955;28;20049;-75
2022/05/02 01:26:24;;;;;;;27.45;17.55;;;10.10;99.90;;;;;;5055920;28;20036;-76
2022/05/02 01:28:53;;;;;;;29.88;17.92;;;10.20;99.90;;;;;;5055714;28;20025;-77
2022/05/02 01:31:19;;;;;;;26.08;16.92;;;10.10;99.90;;;;;;5055303;28;20025;-76
2022/05/02 01:33:46;;;;;;;26.00;16.42;;;9.70;99.90;;;;;;5055647;28;20029;-75
2022/05/02 01:36:12;;;;;;;29.65;16.70;;;9.70;99.90;;;;;;5055651;28;20037;-75
2022/05/02 01:38:38;;;;;;;25.70;17.67;;;9.90;99.90;;;;;;5055620;28;20025;-77
2022/05/02 01:41:05;;;;;;;28.10;18.73;;;10.10;99.90;;;;;;5055684;28;20492;-76
2022/05/02 01:43:33;;;;;;;28.98;17.65;;;10.30;99.90;;;;;;5055292;28;20033;-76
2022/05/02 01:46:00;;;;;;;23.77;17.88;;;10.30;99.90;;;;;;5037266;28;20555;-76
2022/05/02 01:48:27;;;;;;;26.45;17.10;;;10.20;99.90;;;;;;5055234;28;20401;-75
2022/05/02 01:50:53;;;;;;;27.02;16.95;;;9.70;99.90;;;;;;5054247;28;20025;-77
2022/05/02 01:53:20;;;;;;;24.85;17.60;;;9.60;99.90;;;;;;5037479;28;20033;-76
2022/05/02 01:55:45;;;;;;;25.13;18.83;;;9.70;99.90;;;;;;5055464;28;20037;-76
2022/05/02 01:58:11;;;;;;;25.98;18.90;;;9.80;99.90;;;;;;5055073;28;20028;-76
2022/05/02 02:00:37;;;;;;;29.55;18.50;;;9.90;99.90;;;;;;5054915;28;20447;-76
2022/05/02 02:03:03;;;;;;;28.27;17.42;;;9.90;99.90;;;;;;5054967;28;20063;-76
2022/05/02 02:08:27;;;;;;;28.27;18.20;;;9.30;99.90;;;;;;5054948;28;20033;-75
2022/05/02 02:10:55;;;;;;;29.05;18.55;;;9.50;99.90;;;;;;5055023;28;20017;-76
2022/05/02 02:13:21;;;;;;;29.42;17.05;;;9.40;99.90;;;;;;5037376;28;20378;-77
2022/05/02 02:15:47;;;;;;;24.90;18.08;;;9.00;99.90;;;;;;5036727;28;20033;-77
2022/05/02 02:18:13;;;;;;;26.50;17.45;;;8.70;99.90;;;;;;5055008;28;20021;-76
2022/05/02 02:20:43;;;;;;;30.38;18.30;;;8.70;99.90;;;;;;5054654;28;20024;-77
2022/05/02 02:23:09;;;;;;;35.38;18.35;;;8.90;99.90;;;;;;5054746;28;20040;-77
2022/05/02 02:25:37;;;;;;;29.52;19.40;;;9.10;99.90;;;;;;5054445;28;20422;-76
2022/05/02 02:28:04;;;;;;;30.67;18.27;;;9.10;99.90;;;;;;5054620;28;20029;-76
2022/05/02 02:30:30;;;;;;;27.27;18.67;;;9.20;99.90;;;;;;5036808;28;20028;-76
2022/05/02 02:32:56;;;;;;;31.58;18.58;;;9.30;99.90;;;;;;5036777;28;20397;-76
2022/05/02 02:35:22;;;;;;;30.52;18.58;;;9.40;99.90;;;;;;5054349;28;20052;-77
2022/05/02 02:37:48;;;;;;;28.02;18.42;;;9.50;99.90;;;;;;5054673;28;20067;-76
2022/05/02 02:40:15;;;;;;;26.38;17.98;;;9.50;99.90;;;;;;5054256;28;20021;-77
2022/05/02 02:42:41;;;;;;;26.55;17.77;;;9.60;99.90;;;;;;5054207;28;20401;-76
2022/05/02 02:45:07;;;;;;;33.88;18.00;;;9.40;99.90;;;;;;5054236;28;20025;-77
2022/05/02 02:47:33;;;;;;;32.63;18.92;;;8.90;99.90;;;;;;5054239;28;20017;-77
2022/05/02 02:49:59;;;;;;;30.77;19.33;;;8.70;99.90;;;;;;5054181;28;20035;-78
2022/05/02 02:52:25;;;;;;;28.27;18.35;;;9.10;99.90;;;;;;5054244;28;20029;-76
2022/05/02 02:54:51;;;;;;;29.08;19.00;;;8.90;99.90;;;;;;5054144;28;20059;-77
2022/05/02 02:57:16;;;;;;;32.42;18.90;;;8.50;99.90;;;;;;5053878;28;20029;-76
2022/05/02 02:59:42;;;;;;;30.48;18.02;;;8.80;99.90;;;;;;5019593;28;20063;-77
2022/05/02 03:02:08;;;;;;;31.60;20.30;;;9.00;99.90;;;;;;5053908;28;20083;-77
2022/05/02 03:07:20;;;;;;;27.95;18.27;;;8.50;99.90;;;;;;5053919;28;20041;-77
2022/05/02 03:09:46;;;;;;;27.75;18.50;;;8.30;99.90;;;;;;5053759;28;20028;-78
2022/05/02 03:12:12;;;;;;;30.50;19.52;;;8.30;99.90;;;;;;5053801;28;20025;-78
2022/05/02 03:14:38;;;;;;;31.48;19.88;;;8.80;99.90;;;;;;5053782;28;20037;-77
2022/05/02 03:17:04;;;;;;;35.63;19.58;;;8.40;99.90;;;;;;5036033;28;20025;-77
2022/05/02 03:19:30;;;;;;;30.17;19.95;;;8.30;99.90;;;;;;5053886;28;20029;-76
2022/05/02 03:21:56;;;;;;;38.25;20.42;;;8.40;99.90;;;;;;5035721;28;20472;-77
2022/05/02 03:24:22;;;;;;;31.92;20.08;;;8.80;99.90;;;;;;5053630;28;20120;-76
2022/05/02 03:26:47;;;;;;;33.05;18.88;;;8.80;99.90;;;;;;5053430;28;20051;-76
2022/05/02 03:29:13;;;;;;;27.73;18.48;;;8.90;99.90;;;;;;5053662;28;20389;-77
2022/05/02 03:31:40;;;;;;;32.45;19.15;;;8.80;99.90;;;;;;5035727;28;20118;-78
2022/05/02 03:34:05;;;;;;;31.90;19.00;;;8.70;99.90;;;;;;5053557;28;20033;-77
2022/05/02 03:36:31;;;;;;;34.13;18.40;;;8.40;99.90;;;;;;5053619;28;20043;-78
2022/05/02 03:38:57;;;;;;;27.67;17.58;;;8.30;99.90;;;;;;5053269;28;20025;-77
2022/05/02 03:41:23;;;;;;;32.08;19.25;;;8.40;99.90;;;;;;5052910;28;20440;-77
2022/05/02 03:43:48;;;;;;;34.35;19.42;;;8.50;99.90;;;;;;5053367;28;20482;-77
2022/05/02 03:46:14;;;;;;;33.40;18.67;;;8.10;99.90;;;;;;5052925;28;20021;-77
2022/05/02 03:48:40;;;;;;;32.20;18.58;;;8.20;99.90;;;;;;5035133;28;20628;-76
2022/05/02 03:51:07;;;;;;;28.15;18.45;;;8.00;99.90;;;;;;5052982;28;20053;-77
2022/05/02 03:53:32;;;;;;;31.25;19.38;;;8.00;99.90;;;;;;5053171;28;20021;-77
2022/05/02 03:55:58;;;;;;;28.35;18.15;;;8.20;99.90;;;;;;5052885;28;20111;-77
2022/05/02 03:58:24;;;;;;;27.98;18.73;;;8.00;99.90;;;;;;5052817;28;20028;-77
2022/05/02 04:00:50;;;;;;;30.33;19.08;;;7.90;99.90;;;;;;5052855;28;20025;-77
2022/05/02 04:03:15;;;;;;;29.20;19.42;;;8.00;99.90;;;;;;5052785;28;20056;-77
2022/05/02 04:05:41;;;;;;;34.13;20.63;;;8.00;99.90;;;;;;5052861;28;20385;-76
2022/05/02 04:08:07;;;;;;;33.22;20.98;;;8.20;99.90;;;;;;5034981;28;20102;-76
2022/05/02 04:10:33;;;;;;;30.83;20.08;;;8.00;99.90;;;;;;5052461;28;20056;-77
2022/05/02 04:12:59;;;;;;;29.42;19.55;;;7.80;99.90;;;;;;5052849;28;20037;-77
2022/05/02 04:15:24;;;;;;;33.67;19.33;;;7.60;99.90;;;;;;5052779;28;20043;-76
2022/05/02 04:17:50;;;;;;;29.90;18.65;;;7.80;99.90;;;;;;5034888;28;20036;-77
2022/05/02 04:20:16;;;;;;;30.85;19.85;;;7.90;99.90;;;;;;5052646;28;20115;-76
2022/05/02 04:22:42;;;;;;;39.00;20.35;;;7.80;99.90;;;;;;5052551;28;20504;-73
2022/05/02 04:25:08;;;;;;;32.97;19.95;;;7.80;99.90;;;;;;5052390;28;20055;-76
2022/05/02 04:27:34;;;;;;;32.65;20.25;;;7.80;99.90;;;;;;5052468;28;20439;-75
2022/05/02 04:30:00;;;;;;;39.30;21.48;;;7.50;99.90;;;;;;5058264;28;20025;-76
2022/05/02 04:32:26;;;;;;;35.22;21.25;;;7.90;99.90;;;;;;5059099;28;20032;-75
2022/05/02 04:34:58;;;;;;;31.60;20.85;;;8.10;99.90;;;;;;5059166;28;20029;-73
2022/05/02 04:37:23;;;;;;;40.65;21.48;;;8.20;99.90;;;;;;5041263;28;20384;-75
2022/05/02 04:39:49;;;;;;;43.42;22.50;;;8.20;99.90;;;;;;5041107;28;20115;-74
2022/05/02 04:42:15;;;;;;;35.47;22.15;;;8.40;99.90;;;;;;5059116;28;20033;-75
2022/05/02 04:44:40;;;;;;;36.55;21.25;;;8.50;99.90;;;;;;5059112;28;20102;-76
2022/05/02 04:47:06;;;;;;;36.50;21.95;;;8.30;99.90;;;;;;5040982;28;20056;-75
2022/05/02 04:49:32;;;;;;;33.55;22.42;;;8.10;99.90;;;;;;5059074;28;20029;-76
2022/05/02 04:51:58;;;;;;;38.80;23.13;;;8.00;99.90;;;;;;5041315;28;20411;-74
2022/05/02 04:54:24;;;;;;;46.47;24.27;;;7.90;99.90;;;;;;5059005;28;20037;-75
2022/05/02 04:56:49;;;;;;;40.25;24.17;;;8.00;99.90;;;;;;5041300;28;20028;-76
2022/05/02 04:59:15;;;;;;;45.65;26.00;;;8.10;99.90;;;;;;5041126;28;20086;-73
2022/05/02 05:01:41;;;;;;;51.47;28.80;;;8.00;99.90;;;;;;5059104;28;20104;-77
2022/05/02 05:04:07;;;;;;;50.92;28.83;;;8.10;99.90;;;;;;5061424;28;20056;-74
2022/05/02 05:06:33;;;;;;;52.80;31.42;;;8.30;99.90;;;;;;5079271;28;20036;-75
2022/05/02 05:08:59;;;;;;;50.47;28.55;;;8.30;99.90;;;;;;5078755;28;20549;-75
2022/05/02 05:11:32;;;;;;;47.15;29.35;;;8.10;99.90;;;;;;5079047;28;20028;-76
2022/05/02 05:17:13;;;;;;;52.55;29.52;;;8.70;99.90;;;;;;5061425;28;20052;-77
2022/05/02 05:20:01;;;;;;;61.25;28.08;;;8.90;99.90;;;;;;5078893;28;20469;-77
2022/05/02 05:23:01;;;;;;;43.60;26.05;;;9.00;99.90;;;;;;5078409;28;20613;-77
2022/05/02 05:25:36;;;;;;;47.40;28.35;;;8.90;99.90;;;;;;5078926;28;20037;-77
2022/05/02 05:28:40;;;;;;;52.25;29.88;;;8.90;99.90;;;;;;5078845;28;20081;-76
2022/05/02 05:31:19;;;;;;;48.15;28.08;;;9.30;99.90;;;;;;5047978;28;20044;-75
2022/05/02 05:34:06;;;;;;;43.85;27.42;;;9.50;99.90;;;;;;5078652;28;20062;-76
2022/05/02 05:37:07;;;;;;;42.88;27.23;;;9.40;99.90;;;;;;5078370;28;20032;-74
2022/05/02 05:39:43;;;;;;;37.75;26.42;;;9.30;99.90;;;;;;5078029;28;20032;-76
2022/05/02 05:43:08;;;;;;;40.83;27.25;;;9.50;99.90;;;;;;5074792;28;20036;-76
2022/05/02 05:45:47;;;;;;;41.03;27.30;;;9.40;99.90;;;;;;4958191;28;20044;-76
2022/05/02 05:48:38;;;;;;;46.47;26.95;;;9.50;99.90;;;;;;5045561;28;20037;-75
2022/05/02 05:51:36;;;;;;;39.53;26.25;;;9.70;99.90;;;;;;5055361;28;20515;-76
2022/05/02 05:54:16;;;;;;;38.13;25.73;;;9.80;99.90;;;;;;5021816;28;20083;-75
2022/05/02 05:56:59;;;;;;;39.90;26.88;;;10.20;99.90;;;;;;5055421;28;20116;-76
2022/05/02 05:59:40;;;;;;;39.95;26.00;;;10.50;99.90;;;;;;5055179;28;20033;-76
2022/05/02 06:02:13;;;;;;;44.05;27.55;;;10.70;99.90;;;;;;5037193;28;20024;-74
2022/05/02 06:04:41;;;;;;;41.25;26.45;;;11.00;99.90;;;;;;5017249;28;20504;-76
2022/05/02 06:07:09;;;;;;;41.70;26.17;;;11.10;99.90;;;;;;5034819;28;20057;-76
2022/05/02 06:09:38;;;;;;;44.20;26.42;;;11.20;99.90;;;;;;5034994;28;20044;-75
2022/05/02 06:12:05;;;;;;;42.20;26.17;;;11.30;99.90;;;;;;5035226;28;20044;-76
2022/05/02 06:18:27;;;;;;;38.65;25.15;;;11.60;99.90;;;;;;5032649;28;20558;-75
2022/05/02 06:20:13;;;;;;;40.30;25.35;;;11.90;99.90;;;;;;5042683;28;19931;-76
2022/05/02 06:22:40;;;;;;;38.50;26.60;;;12.00;99.90;;;;;;5042140;28;20478;-77
2022/05/02 06:25:06;;;;;;;39.70;27.23;;;12.00;99.90;;;;;;5050270;28;20032;-76
2022/05/02 06:27:33;;;;;;;43.97;26.80;;;12.10;99.90;;;;;;5037809;28;20116;-76
2022/05/02 06:30:01;;;;;;;42.67;25.70;;;12.20;99.90;;;;;;5047381;28;20026;-75
2022/05/02 06:32:30;;;;;;;37.33;24.73;;;12.20;99.90;;;;;;5027466;28;20029;-76
2022/05/02 06:34:56;;;;;;;44.13;25.35;;;12.30;99.90;;;;;;5039043;28;20056;-77
2022/05/02 06:37:32;;;;;;;42.88;26.23;;;12.20;99.90;;;;;;5050015;28;20037;-76
2022/05/02 06:40:14;;;;;;;43.63;26.02;;;12.40;99.90;;;;;;5022529;28;20029;-75
2022/05/02 06:42:50;;;;;;;45.08;24.77;;;12.60;99.90;;;;;;5041427;28;20044;-75
2022/05/02 06:45:16;;;;;;;44.70;24.30;;;12.50;99.90;;;;;;5050149;28;20066;-76
2022/05/02 06:48:07;;;;;;;46.55;24.15;;;12.70;99.90;;;;;;5005096;28;20038;-75
2022/05/02 06:50:37;;;;;;;40.35;24.42;;;12.70;99.90;;;;;;5027110;28;20033;-76
2022/05/02 06:53:05;;;;;;;50.15;24.67;;;13.00;99.90;;;;;;5038072;28;20025;-76
2022/05/02 06:56:08;;;;;;;44.30;24.00;;;13.30;99.90;;;;;;5050232;28;20032;-75
2022/05/02 06:59:00;;;;;;;43.70;25.55;;;13.50;99.90;;;;;;5027703;28;20501;-75
2022/05/02 07:01:35;;;;;;;41.33;25.02;;;13.60;99.90;;;;;;5019384;28;20025;-77
2022/05/02 07:04:18;;;;;;;38.83;25.48;;;13.80;99.90;;;;;;5052977;28;20044;-76
2022/05/02 07:06:50;;;;;;;38.60;23.23;;;13.90;99.90;;;;;;5053238;28;20041;-77
2022/05/02 07:09:27;;;;;;;45.20;21.42;;;13.90;99.90;;;;;;5019388;28;20044;-76
2022/05/02 07:11:59;;;;;;;46.55;21.08;;;13.80;99.90;;;;;;5047456;28;20131;-77
2022/05/02 07:14:59;;;;;;;35.33;21.02;;;13.40;99.90;;;;;;5043554;28;20104;-76
2022/05/02 07:17:50;;;;;;;47.67;22.83;;;13.40;99.90;;;;;;5018749;28;20516;-76
2022/05/02 07:20:22;;;;;;;39.28;24.15;;;13.50;99.90;;;;;;5044036;28;20037;-75
2022/05/02 07:23:06;;;;;;;;;;;13.90;99.90;;;;;;5047175;28;20434;-77
2022/05/02 07:25:38;;;;;;;33.33;18.75;;;14.20;99.90;;;;;;5036630;28;19940;-77
2022/05/02 07:28:10;;;;;;;27.58;18.30;;;14.30;99.90;;;;;;5027820;28;20482;-77
2022/05/02 07:30:37;;;;;;;26.08;17.95;;;14.60;99.90;;;;;;5027138;28;20128;-75
2022/05/02 07:33:03;;;;;;;26.08;18.23;;;14.60;99.90;;;;;;5037382;28;20018;-74
2022/05/02 07:35:30;;;;;;;37.40;19.25;;;14.40;99.90;;;;;;5049216;28;20029;-76
2022/05/02 07:37:58;;;;;;;26.63;17.38;;;14.70;99.10;;;;;;5039494;28;20032;-77
2022/05/02 07:40:25;;;;;;;31.15;16.70;;;15.00;98.70;;;;;;5042641;28;20092;-76
2022/05/02 07:42:53;;;;;;;30.08;17.23;;;15.20;97.80;;;;;;5046690;28;20110;-76
2022/05/02 07:45:24;;;;;;;26.42;16.40;;;15.00;98.00;;;;;;5042332;28;20049;-77
2022/05/02 07:47:52;;;;;;;25.92;16.48;;;15.20;97.50;;;;;;5035851;28;20032;-76
2022/05/02 07:50:25;;;;;;;27.60;15.02;;;15.50;96.50;;;;;;5042229;28;20017;-76
2022/05/02 07:52:52;;;;;;;31.00;17.17;;;15.40;95.90;;;;;;5038288;28;20065;-76
2022/05/02 07:55:21;;;;;;;28.60;16.48;;;15.40;95.60;;;;;;5032367;28;20071;-76
2022/05/02 07:57:48;;;;;;;27.70;16.25;;;15.70;96.30;;;;;;5032101;28;20548;-76
2022/05/02 08:00:16;;;;;;;24.92;15.60;;;15.90;96.00;;;;;;5032451;28;20029;-76
2022/05/02 08:02:42;;;;;;;26.40;13.98;;;15.70;95.60;;;;;;5034406;28;20037;-76
2022/05/02 08:05:09;;;;;;;26.40;14.90;;;15.80;95.20;;;;;;5051742;28;20013;-77
2022/05/02 08:07:42;;;;;;;23.85;15.73;;;15.90;95.00;;;;;;5041754;28;20045;-75
2022/05/02 08:10:39;;;;;;;25.83;15.57;;;16.10;94.50;;;;;;5047317;28;20029;-77
2022/05/02 08:13:14;;;;;;;22.42;16.23;;;16.20;94.40;;;;;;5021040;28;20111;-77
2022/05/02 08:16:03;;;;;;;21.17;14.77;;;15.80;93.60;;;;;;5023151;28;20057;-76
2022/05/02 08:19:06;;;;;;;23.08;14.30;;;16.10;94.20;;;;;;5048874;28;20362;-77
2022/05/02 08:21:45;;;;;;;25.30;13.65;;;16.10;94.60;;;;;;5038104;28;20025;-78
2022/05/02 08:27:48;;;;;;;19.80;13.20;;;16.50;93.10;;;;;;5040656;28;20029;-77
2022/05/02 08:30:21;;;;;;;25.05;14.52;;;16.60;93.20;;;;;;5036447;28;20055;-77
2022/05/02 08:32:59;;;;;;;20.23;13.52;;;16.80;92.90;;;;;;5039831;28;20026;-77
2022/05/02 08:35:35;;;;;;;20.15;13.68;;;16.90;92.60;;;;;;5041216;28;20091;-77
2022/05/02 08:38:22;;;;;;;24.92;14.45;;;16.30;93.10;;;;;;5038046;28;20112;-78
2022/05/02 08:41:17;;;;;;;17.65;13.38;;;16.40;92.90;;;;;;5036117;28;20054;-76
2022/05/02 08:44:28;;;;;;;18.55;12.73;;;16.50;93.00;;;;;;5022771;28;20046;-77
2022/05/02 08:47:44;;;;;;;19.88;12.98;;;17.20;92.00;;;;;;5035386;28;20388;-78
2022/05/02 08:50:29;;;;;;;16.58;12.75;;;17.40;92.10;;;;;;5047306;28;20059;-77
2022/05/02 08:53:00;;;;;;;15.82;11.30;;;17.50;91.10;;;;;;5036544;28;20509;-76
2022/05/02 08:55:39;;;;;;;22.85;12.75;;;17.10;90.80;;;;;;5042535;28;20025;-77
2022/05/02 08:59:01;;;;;;;24.42;13.57;;;17.00;91.40;;;;;;5046342;28;20033;-77
2022/05/02 09:01:36;;;;;;;20.48;13.43;;;17.20;91.50;;;;;;4970744;28;20038;-77
2022/05/02 09:04:34;;;;;;;16.13;12.73;;;17.50;90.90;;;;;;4971236;28;20039;-77
2022/05/02 09:07:57;;;;;;;16.13;12.75;;;17.90;90.50;;;;;;5017526;28;20052;-77
2022/05/02 09:10:52;;;;;;;18.20;12.90;;;17.60;90.70;;;;;;4954759;28;20118;-77
2022/05/02 09:14:08;;;;;;;22.02;13.68;;;18.10;90.00;;;;;;4962997;28;20024;-77
2022/05/02 09:17:12;;;;;;;20.08;12.93;;;18.10;90.20;;;;;;5052880;28;20432;-77
2022/05/02 09:20:10;;;;;;;22.20;12.43;;;18.40;90.00;;;;;;5030970;28;20025;-78
2022/05/02 09:23:13;;;;;;;21.17;13.77;;;18.00;89.10;;;;;;5039017;28;20042;-77
2022/05/02 09:26:00;;;;;;;16.65;12.13;;;17.90;89.10;;;;;;5044648;28;20037;-78
2022/05/02 09:29:07;;;;;;;17.27;12.60;;;18.50;89.30;;;;;;5051485;28;20484;-77
2022/05/02 09:31:59;;;;;;;20.13;11.73;;;18.70;88.10;;;;;;5018828;28;20129;-78
2022/05/02 09:34:45;;;;;;;19.80;11.68;;;18.80;87.40;;;;;;5038524;28;20045;-77
2022/05/02 09:37:41;;;;;;;17.13;11.52;;;18.90;86.90;;;;;;5036471;28;20469;-78
2022/05/02 09:40:12;;;;;;;14.68;11.45;;;19.00;86.30;;;;;;5049377;28;20041;-77
2022/05/02 09:43:05;;;;;;;14.70;11.18;;;19.60;86.00;;;;;;5052297;28;20115;-77
2022/05/02 09:49:35;;;;;;;15.02;11.10;;;19.40;85.20;;;;;;5050878;28;20524;-76
2022/05/02 09:52:11;;;;;;;14.50;10.57;;;19.00;85.90;;;;;;5040908;28;20041;-77
2022/05/02 09:58:18;;;;;;;15.27;10.70;;;19.40;84.50;;;;;;5048862;28;20040;-76
2022/05/02 10:01:07;;;;;;;15.98;10.88;;;19.80;83.80;;;;;;5042410;28;20095;-76
2022/05/02 10:04:12;;;;;;;15.55;10.82;;;19.80;82.70;;;;;;5058425;28;20032;-76
2022/05/02 10:06:38;;;;;;;15.13;10.15;;;19.30;83.30;;;;;;5054113;28;20131;-77
2022/05/02 10:09:12;;;;;;;14.32;10.20;;;19.50;83.50;;;;;;5036960;28;20104;-77
2022/05/02 10:11:49;;;;;;;17.58;9.63;;;19.30;82.00;;;;;;5026124;28;20139;-77
2022/05/02 10:14:22;;;;;;;16.30;9.85;;;19.20;82.90;;;;;;5050728;28;20358;-77
2022/05/02 10:16:55;;;;;;;14.00;10.00;;;19.60;82.40;;;;;;5068322;28;20130;-76
2022/05/02 10:19:39;;;;;;;12.77;8.02;;;19.90;82.90;;;;;;5054536;28;20037;-76
2022/05/02 10:22:41;;;;;;;14.02;8.45;;;20.20;83.30;;;;;;5039983;28;20037;-76
2022/05/02 10:25:14;;;;;;;10.73;7.78;;;20.50;81.60;;;;;;5041545;28;20454;-77
2022/05/02 10:27:55;;;;;;;15.50;8.65;;;20.70;80.00;;;;;;5042298;28;20083;-77
2022/05/02 10:30:21;;;;;;;17.35;9.35;;;20.70;79.70;;;;;;5050241;28;20037;-77
2022/05/02 10:32:53;;;;;;;13.73;8.65;;;20.80;81.60;;;;;;5063135;28;20470;-77
2022/05/02 10:35:21;;;;;;;11.45;8.23;;;20.90;79.70;;;;;;5073096;28;20032;-76
2022/05/02 10:38:05;;;;;;;13.82;8.50;;;20.60;78.90;;;;;;5074425;28;20107;-77
2022/05/02 10:40:51;;;;;;;14.27;8.27;;;20.70;79.90;;;;;;5074224;28;20029;-76
2022/05/02 10:43:24;;;;;;;13.73;7.97;;;20.80;82.00;;;;;;5073995;28;20048;-76
2022/05/02 10:45:51;;;;;;;11.98;8.80;;;20.90;79.80;;;;;;5056362;28;20033;-76
2022/05/02 10:48:19;;;;;;;13.48;8.35;;;21.20;77.60;;;;;;5061842;28;20078;-77
2022/05/02 10:51:14;;;;;;;12.68;8.32;;;21.10;78.90;;;;;;5054353;28;20039;-74
2022/05/02 10:54:24;;;;;;;13.63;9.45;;;20.90;78.70;;;;;;5030783;28;20033;-74
2022/05/02 10:56:58;;;;;;;13.55;8.90;;;21.30;78.50;;;;;;5025448;28;20037;-77
2022/05/02 10:59:28;;;;;;;10.88;7.97;;;21.30;79.00;;;;;;5054015;28;20033;-75
2022/05/02 11:02:18;;;;;;;16.40;10.48;;;21.00;76.70;;;;;;5053879;28;20373;-74
2022/05/02 11:04:47;;;;;;;14.02;8.98;;;20.70;78.50;;;;;;5033855;28;20033;-77
2022/05/02 11:07:27;;;;;;;24.30;17.65;;;20.80;77.50;;;;;;5040146;28;20036;-73
2022/05/02 11:10:09;;;;;;;21.08;9.95;;;20.60;78.00;;;;;;5055941;28;20021;-76
2022/05/02 11:12:51;;;;;;;11.00;7.95;;;20.40;78.50;;;;;;5073560;28;20060;-76
2022/05/02 11:15:21;;;;;;;11.82;7.05;;;20.70;79.70;;;;;;5073762;28;20119;-72
2022/05/02 11:18:08;;;;;;;14.40;7.90;;;21.00;78.40;;;;;;5073777;28;20031;-77
2022/05/02 11:21:02;;;;;;;18.55;9.45;;;21.20;76.70;;;;;;5073531;28;20032;-77
2022/05/02 11:23:28;;;;;;;13.55;8.50;;;21.50;77.20;;;;;;5073657;28;20044;-76
2022/05/02 11:26:21;;;;;;;13.38;9.80;;;20.80;77.30;;;;;;5073107;28;20020;-75
2022/05/02 11:29:16;;;;;;;13.90;8.15;;;20.70;77.20;;;;;;5055769;28;20585;-74
2022/05/02 11:32:03;;;;;;;13.57;7.95;;;21.00;76.70;;;;;;5002490;28;20042;-76
2022/05/02 11:34:58;;;;;;;11.98;8.07;;;21.30;76.20;;;;;;5073383;28;20070;-76
2022/05/02 11:37:48;;;;;;;10.25;7.68;;;21.70;76.60;;;;;;5073091;28;20035;-77
2022/05/02 11:40:17;;;;;;;8.90;7.07;;;21.60;75.50;;;;;;5072387;28;20040;-73
2022/05/02 11:42:47;;;;;;;11.95;7.55;;;21.80;75.90;;;;;;5073197;28;20068;-78
2022/05/02 11:45:17;;;;;;;12.40;7.20;;;22.00;74.80;;;;;;5073158;28;20137;-76
2022/05/02 11:48:11;;;;;;;9.90;8.35;;;22.40;74.50;;;;;;5065195;28;20473;-75
2022/05/02 11:50:44;;;;;;;11.52;8.43;;;23.10;73.50;;;;;;5053183;28;20087;-74
2022/05/02 11:53:13;;;;;;;14.57;9.15;;;23.00;72.90;;;;;;5053172;28;20060;-75
2022/05/02 11:55:40;;;;;;;17.38;9.52;;;22.80;74.10;;;;;;5052922;28;20531;-77
2022/05/02 11:58:19;;;;;;;11.32;9.13;;;22.00;74.20;;;;;;5052806;28;20086;-75
2022/05/02 12:00:50;;;;;;;11.45;8.18;;;22.70;73.60;;;;;;5035068;28;20029;-77
2022/05/02 12:03:20;;;;;;;13.68;8.88;;;22.50;73.20;;;;;;5052814;28;20119;-76
2022/05/02 12:06:01;;;;;;;12.43;7.20;;;21.80;73.80;;;;;;5052920;28;20033;-75
2022/05/02 12:08:35;;;;;;;17.00;7.80;;;21.60;74.20;;;;;;5052698;28;20075;-75
2022/05/02 12:11:06;;;;;;;11.73;7.75;;;22.00;73.80;;;;;;5035006;28;20029;-75
2022/05/02 12:13:44;;;;;;;10.23;7.40;;;21.80;73.70;;;;;;5052487;28;20466;-74
2022/05/02 12:16:13;;;;;;;15.05;7.93;;;22.30;72.90;;;;;;5070395;28;20028;-76
2022/05/02 12:19:08;;;;;;;12.13;7.70;;;22.50;72.90;;;;;;5072794;28;20052;-74
2022/05/02 12:21:47;;;;;;;10.45;8.30;;;22.70;73.70;;;;;;5071088;28;20504;-75
2022/05/02 12:24:25;;;;;;;10.80;7.75;;;22.90;71.70;;;;;;5072233;28;20102;-76
2022/05/02 12:26:52;;;;;;;15.02;9.02;;;23.50;73.00;;;;;;5072680;28;20040;-76
2022/05/02 12:29:19;;;;;;;12.57;8.45;;;22.90;72.00;;;;;;5072729;28;20046;-75
2022/05/02 12:31:54;;;;;;;12.35;7.90;;;22.60;72.60;;;;;;5072606;28;20060;-76
2022/05/02 12:34:20;;;;;;;10.20;8.35;;;23.10;72.50;;;;;;5072712;28;20056;-76
2022/05/02 12:36:47;;;;;;;10.50;7.75;;;22.90;71.00;;;;;;5072587;28;20024;-76
2022/05/02 12:39:24;;;;;;;20.17;8.75;;;23.30;71.10;;;;;;5072122;28;20137;-78
2022/05/02 12:41:54;;;;;;;12.88;8.35;;;23.60;71.60;;;;;;5072357;28;20029;-76
2022/05/02 12:44:25;;;;;;;10.70;8.38;;;22.90;71.60;;;;;;5072265;28;20045;-76
2022/05/02 12:46:53;;;;;;;15.48;9.15;;;23.10;70.90;;;;;;5071873;28;20488;-76
2022/05/02 12:49:32;;;;;;;16.48;8.30;;;22.70;70.80;;;;;;5052655;28;20112;-76
2022/05/02 12:51:58;;;;;;;16.00;8.40;;;21.30;71.70;;;;;;5038593;28;20025;-76
2022/05/02 12:54:26;;;;;;;12.60;7.25;;;21.80;71.80;;;;;;5056330;28;20358;-76
2022/05/02 13:02:43;;;;;;;14.25;6.00;;;23.10;69.10;;;;;;5056070;28;20558;-77
2022/05/02 13:05:16;;;;;;;10.55;6.45;;;21.70;69.80;;;;;;5056044;28;20037;-77
2022/05/02 13:07:53;;;;;;;8.10;5.93;;;21.90;71.60;;;;;;5056056;28;20413;-78
2022/05/02 13:10:21;;;;;;;20.35;7.55;;;21.80;68.50;;;;;;5038299;28;20037;-77
2022/05/02 13:13:14;;;;;;;13.00;8.18;;;22.90;70.70;;;;;;5038090;28;20112;-77
2022/05/02 13:15:42;;;;;;;10.88;6.18;;;23.50;71.00;;;;;;5017832;28;20033;-77
2022/05/02 13:18:10;;;;;;;12.07;7.05;;;23.80;69.50;;;;;;5055960;28;20057;-76
2022/05/02 13:20:36;;;;;;;12.77;6.78;;;23.50;68.50;;;;;;5055791;28;20492;-75
2022/05/02 13:23:04;;;;;;;8.38;6.18;;;23.20;68.50;;;;;;5055837;28;20025;-77
2022/05/02 13:26:05;;;;;;;8.70;6.15;;;23.30;68.40;;;;;;5055839;28;20362;-77
2022/05/02 13:28:51;;;;;;;8.63;6.28;;;24.40;67.80;;;;;;5055807;28;20045;-77
2022/05/02 13:31:30;;;;;;;10.02;6.88;;;26.60;67.90;;;;;;5037327;28;20960;-77
2022/05/02 13:33:59;;;;;;;12.60;6.75;;;27.10;65.20;;;;;;5051507;28;20586;-77
2022/05/02 13:36:26;;;;;;;9.50;7.70;;;27.10;65.70;;;;;;5055641;28;20017;-77
2022/05/02 13:39:08;;;;;;;8.90;6.03;;;26.70;65.30;;;;;;5055563;28;20103;-78
2022/05/02 13:41:42;;;;;;;7.90;5.63;;;24.90;64.80;;;;;;5055675;28;20056;-76